Time;durP1;ratioP1;P1;durP2;ratioP2;P2;SDS_P1;SDS_P2;PMS_P1;PMS_P2;Temp;Humidity;BMP_temperature;BMP_pressure;BME280_temperature;BME280_humidity;BME280_pressure;Samples;Min_cycle;Max_cycle;Signal;HPM_P1;HPM_P2
2021/06/24 00:05:42;;;;;;;24.70;16.52;;;;;;;25.89;100.00;99268.87;4338962;80;28504;-80
2021/06/24 00:11:43;;;;;;;24.75;17.37;;;;;;;25.84;100.00;99258.02;4328522;80;28449;-79
2021/06/24 00:17:44;;;;;;;27.50;17.15;;;;;;;25.77;100.00;99256.32;4343421;80;28504;-79
2021/06/24 00:23:46;;;;;;;27.13;16.90;;;;;;;25.51;100.00;99238.48;4359419;78;28496;-78
2021/06/24 00:29:47;;;;;;;24.47;16.00;;;;;;;25.34;100.00;99212.61;4395345;78;28452;-78
2021/06/24 00:35:49;;;;;;;26.93;17.70;;;;;;;25.43;100.00;99212.58;4383472;78;28453;-79
2021/06/24 00:41:51;;;;;;;26.85;19.67;;;;;;;25.16;100.00;99193.95;4414375;78;28471;-79
2021/06/24 00:47:52;;;;;;;27.15;17.75;;;;;;;24.94;100.00;99186.12;4346893;78;28442;-79
2021/06/24 00:53:54;;;;;;;27.75;18.07;;;;;;;24.97;100.00;99190.96;4334874;79;28454;-78
2021/06/24 00:59:56;;;;;;;26.87;17.52;;;;;;;25.01;100.00;99194.67;4338305;78;28522;-78
2021/06/24 01:05:58;;;;;;;25.05;18.10;;;;;;;25.13;100.00;99188.52;4335074;79;28468;-79
2021/06/24 01:12:07;;;;;;;29.05;19.77;;;;;;;25.11;100.00;99185.84;4349964;78;28504;-78
2021/06/24 01:18:09;;;;;;;25.20;17.87;;;;;;;25.06;100.00;99178.02;4350669;80;28470;-80
2021/06/24 01:24:10;;;;;;;31.57;20.15;;;;;;;25.00;100.00;99177.92;4406450;79;28452;-80
2021/06/24 01:30:13;;;;;;;33.78;21.62;;;;;;;24.83;100.00;99161.43;4324254;81;28450;-80
2021/06/24 01:36:16;;;;;;;33.53;20.68;;;;;;;25.14;100.00;99166.75;4370814;80;28569;-80
2021/06/24 01:42:18;;;;;;;31.25;20.57;;;;;;;25.16;100.00;99158.19;4380985;80;28481;-79
2021/06/24 01:48:21;;;;;;;31.80;20.08;;;;;;;25.17;100.00;99141.92;4367162;80;28518;-80
2021/06/24 01:54:23;;;;;;;27.82;20.30;;;;;;;25.20;100.00;99149.51;4442219;78;28507;-78
2021/06/24 02:00:25;;;;;;;31.80;20.30;;;;;;;25.16;100.00;99152.10;4295752;80;28488;-79
2021/06/24 02:06:28;;;;;;;27.93;18.65;;;;;;;24.91;100.00;99145.50;4320086;80;28515;-79
2021/06/24 02:12:31;;;;;;;28.45;19.77;;;;;;;24.96;100.00;99159.66;4309296;81;28466;-78
2021/06/24 02:18:34;;;;;;;29.60;18.50;;;;;;;24.89;100.00;99159.59;4308616;80;28464;-78
2021/06/24 02:24:38;;;;;;;27.20;17.40;;;;;;;25.13;100.00;99160.19;4314367;80;28508;-79
2021/06/24 02:30:40;;;;;;;29.82;18.82;;;;;;;24.72;100.00;99154.06;4319056;81;28522;-79
2021/06/24 02:36:42;;;;;;;28.67;18.60;;;;;;;24.89;100.00;99149.14;4289783;80;28523;-80
2021/06/24 02:42:45;;;;;;;28.00;19.52;;;;;;;24.77;100.00;99139.61;4359301;80;28437;-79
2021/06/24 02:48:47;;;;;;;31.80;21.35;;;;;;;24.89;100.00;99144.47;4331821;80;28456;-78
2021/06/24 02:54:51;;;;;;;33.95;22.80;;;;;;;24.91;100.00;99134.50;4298911;81;28507;-78
2021/06/24 03:00:54;;;;;;;38.40;22.22;;;;;;;25.14;100.00;99127.42;4358564;82;28517;-78
2021/06/24 03:07:07;;;;;;;36.28;23.83;;;;;;;24.95;100.00;99117.61;4334251;82;28546;-78
2021/06/24 03:13:10;;;;;;;36.25;24.20;;;;;;;24.73;100.00;99112.52;4333424;80;28469;-79
2021/06/24 03:19:12;;;;;;;38.67;23.87;;;;;;;24.79;100.00;99114.56;4359030;80;28431;-79
2021/06/24 03:25:15;;;;;;;33.85;21.73;;;;;;;24.82;100.00;99125.45;4339596;78;28494;-78
2021/06/24 03:31:17;;;;;;;35.98;22.77;;;;;;;24.95;100.00;99114.04;4356171;80;28508;-77
2021/06/24 03:37:19;;;;;;;33.45;22.15;;;;;;;25.04;100.00;99112.09;4371853;80;28524;-78
2021/06/24 03:43:22;;;;;;;29.87;20.88;;;;;;;24.58;100.00;99108.31;4365635;80;28561;-77
2021/06/24 03:49:24;;;;;;;31.12;21.55;;;;;;;25.03;100.00;99103.02;4337687;79;28486;-79
2021/06/24 03:55:44;;;;;;;32.08;21.97;;;;;;;25.24;100.00;99103.69;4351114;78;28449;-79
2021/06/24 04:01:56;;;;;;;32.42;21.85;;;;;;;25.00;100.00;99102.88;4454499;79;28560;-79
2021/06/24 04:08:04;;;;;;;31.30;20.72;;;;;;;25.50;100.00;99102.02;4439440;78;28433;-79
2021/06/24 04:14:05;;;;;;;37.65;23.42;;;;;;;26.06;100.00;99095.00;4431594;78;28483;-79
2021/06/24 04:20:15;;;;;;;35.40;21.40;;;;;;;25.93;100.00;99091.94;4309422;80;28576;-79
2021/06/24 04:26:18;;;;;;;38.20;22.40;;;;;;;26.37;100.00;99092.47;4310665;80;28508;-79
2021/06/24 04:32:20;;;;;;;33.02;20.50;;;;;;;26.16;100.00;99081.42;4419455;78;28524;-80
2021/06/24 04:38:22;;;;;;;29.72;21.10;;;;;;;26.69;100.00;99077.67;4372865;79;28519;-80
2021/06/24 04:44:25;;;;;;;33.65;21.17;;;;;;;26.87;100.00;99092.69;4377644;79;28440;-79
2021/06/24 04:50:26;;;;;;;34.27;22.50;;;;;;;27.35;100.00;99088.23;4411445;79;28450;-81
2021/06/24 04:56:29;;;;;;;34.70;23.02;;;;;;;27.28;100.00;99095.12;4405253;79;28436;-81
2021/06/24 05:02:31;;;;;;;35.65;24.15;;;;;;;27.38;100.00;99098.00;4400740;78;28523;-81
2021/06/24 05:08:50;;;;;;;34.18;23.67;;;;;;;27.26;100.00;99102.13;4442283;79;28458;-81
2021/06/24 05:14:52;;;;;;;41.15;26.82;;;;;;;27.63;100.00;99104.97;4451036;78;28513;-81
2021/06/24 05:20:54;;;;;;;38.13;24.80;;;;;;;27.49;100.00;99098.36;4453340;78;28486;-80
2021/06/24 05:26:56;;;;;;;35.88;25.92;;;;;;;27.97;100.00;99102.88;4420319;78;28460;-80
2021/06/24 05:32:57;;;;;;;41.63;28.92;;;;;;;28.24;100.00;99103.89;4444527;78;28545;-79
2021/06/24 05:38:58;;;;;;;41.77;28.40;;;;;;;28.05;100.00;99100.34;4446076;78;28452;-79
2021/06/24 05:45:00;;;;;;;40.48;28.35;;;;;;;28.13;100.00;99112.41;4439459;78;28488;-79
2021/06/24 05:51:01;;;;;;;45.90;29.75;;;;;;;28.09;100.00;99104.83;4436122;79;28495;-79
2021/06/24 05:57:04;;;;;;;43.05;27.42;;;;;;;28.22;100.00;99100.68;4439835;78;28543;-78
2021/06/24 06:03:06;;;;;;;49.48;29.92;;;;;;;28.32;100.00;99084.99;4443943;78;28528;-78
2021/06/24 06:09:07;;;;;;;44.15;28.85;;;;;;;28.22;100.00;99084.91;4438657;78;28528;-80
2021/06/24 06:15:09;;;;;;;39.88;27.13;;;;;;;28.31;100.00;99079.80;4442269;78;28449;-79
2021/06/24 06:21:11;;;;;;;43.90;29.77;;;;;;;28.77;100.00;99068.45;4381454;80;28446;-79
2021/06/24 06:27:12;;;;;;;43.85;29.57;;;;;;;28.65;100.00;99078.42;4354013;80;28480;-80
2021/06/24 06:33:16;;;;;;;40.55;28.07;;;;;;;28.40;100.00;99073.56;4386442;80;28482;-80
2021/06/24 06:39:17;;;;;;;40.67;26.82;;;;;;;28.78;100.00;99067.29;4355874;80;28525;-78
2021/06/24 06:45:19;;;;;;;45.63;30.55;;;;;;;29.05;100.00;99077.33;4385411;80;28553;-78
2021/06/24 06:51:23;;;;;;;44.88;30.08;;;;;;;29.02;100.00;99076.66;4347590;80;28538;-78
2021/06/24 06:57:25;;;;;;;41.48;28.47;;;;;;;29.18;100.00;99075.30;4448868;79;28461;-79
2021/06/24 07:03:26;;;;;;;39.55;27.17;;;;;;;29.47;100.00;99076.02;4429271;78;28496;-78
2021/06/24 07:09:27;;;;;;;40.05;28.47;;;;;;;29.34;100.00;99087.16;4427422;78;28476;-77
2021/06/24 07:15:29;;;;;;;39.88;28.05;;;;;;;29.52;100.00;99086.84;4422638;78;28563;-77
2021/06/24 07:21:30;;;;;;;40.60;28.17;;;;;;;29.62;100.00;99080.77;4425661;78;28525;-81
2021/06/24 07:27:32;;;;;;;42.35;28.27;;;;;;;29.96;100.00;99076.77;4416298;79;28476;-79
2021/06/24 07:33:34;;;;;;;42.90;27.30;;;;;;;30.04;99.13;99071.06;4417531;78;28473;-78
2021/06/24 07:39:37;;;;;;;39.33;27.30;;;;;;;30.12;97.55;99075.36;4412694;78;28535;-78
2021/06/24 07:45:39;;;;;;;40.70;27.85;;;;;;;30.45;95.66;99078.22;4408380;78;28457;-80
2021/06/24 07:51:40;;;;;;;40.58;26.77;;;;;;;30.15;95.45;99092.08;4403322;79;28475;-81
2021/06/24 07:57:43;;;;;;;41.73;28.50;;;;;;;30.12;95.52;99076.75;4412588;78;28538;-80
2021/06/24 08:03:44;;;;;;;40.60;26.35;;;;;;;30.58;93.12;99071.37;4409987;78;28578;-80
2021/06/24 08:09:46;;;;;;;35.28;25.60;;;;;;;30.96;91.40;99078.66;4418171;78;28486;-80
2021/06/24 08:15:48;;;;;;;38.13;27.10;;;;;;;30.71;90.16;99074.02;4415894;78;28452;-79
2021/06/24 08:21:51;;;;;;;33.05;24.47;;;;;;;30.51;92.96;99081.51;4412855;78;28524;-79
2021/06/24 08:27:53;;;;;;;37.85;25.20;;;;;;;31.14;85.84;99082.34;4325013;80;28458;-80
2021/06/24 08:33:54;;;;;;;29.87;21.45;;;;;;;30.58;85.55;99077.50;4411533;79;28498;-80
2021/06/24 08:39:55;;;;;;;30.65;20.55;;;;;;;31.07;80.23;99084.98;4418328;79;28471;-80
2021/06/24 08:46:03;;;;;;;33.00;22.17;;;;;;;30.94;75.33;99076.84;4426987;79;28496;-80
2021/06/24 08:52:07;;;;;;;32.28;23.02;;;;;;;31.30;78.65;99080.27;4425129;79;28471;-80
2021/06/24 08:58:08;;;;;;;42.88;28.35;;;;;;;31.53;78.15;99073.09;4415673;79;28493;-80
2021/06/24 09:04:13;;;;;;;32.20;24.52;;;;;;;31.32;80.55;99074.34;4411698;79;28478;-80
2021/06/24 09:10:15;;;;;;;43.42;29.63;;;;;;;31.65;78.82;99060.38;4419551;79;28480;-80
2021/06/24 09:16:25;;;;;;;41.68;26.75;;;;;;;31.46;79.39;99060.47;4410002;79;28495;-80
2021/06/24 09:22:27;;;;;;;39.83;27.07;;;;;;;31.67;80.09;99055.84;4396202;78;28512;-79
2021/06/24 09:28:49;;;;;;;42.58;27.98;;;;;;;31.61;78.16;99055.94;4416412;78;28465;-81
2021/06/24 09:34:53;;;;;;;52.73;31.73;;;;;;;31.71;81.78;99045.00;4383773;78;28540;-82
2021/06/24 09:40:58;;;;;;;40.90;26.60;;;;;;;31.51;83.63;99052.62;4326482;80;28529;-81
2021/06/24 09:47:00;;;;;;;42.75;28.30;;;;;;;31.94;81.73;99055.27;4328067;80;28472;-81
2021/06/24 09:53:14;;;;;;;38.02;25.35;;;;;;;31.89;82.96;99057.58;4363497;80;28607;-79
2021/06/24 09:59:16;;;;;;;36.65;26.05;;;;;;;31.78;79.13;99047.66;4314472;80;28446;-79
2021/06/24 10:05:18;;;;;;;40.25;27.50;;;;;;;31.89;81.11;99050.02;4370076;80;28581;-79
2021/06/24 10:11:23;;;;;;;37.60;24.25;;;;;;;32.25;79.06;99038.00;4335071;80;28501;-79
2021/06/24 10:17:24;;;;;;;39.87;26.40;;;;;;;32.48;77.97;99037.09;4391574;78;28523;-78
2021/06/24 10:23:26;;;;;;;39.83;26.60;;;;;;;32.56;79.21;99031.63;4332070;80;28429;-79
2021/06/24 10:29:49;;;;;;;39.38;28.00;;;;;;;32.62;77.69;99018.37;4349135;80;28458;-80
2021/06/24 10:35:53;;;;;;;39.73;27.77;;;;;;;32.18;85.19;99018.44;4317252;80;28547;-81
2021/06/24 10:42:05;;;;;;;32.08;23.87;;;;;;;32.77;85.74;99022.09;4330684;80;28464;-78
2021/06/24 10:48:27;;;;;;;38.45;23.27;;;;;;;32.64;80.98;99012.41;4313562;80;28567;-80
2021/06/24 10:54:42;;;;;;;31.00;22.35;;;;;;;32.87;78.13;98998.32;4373604;79;28584;-79
2021/06/24 11:00:51;;;;;;;34.85;22.05;;;;;;;32.78;77.58;99004.22;4411158;79;28472;-81
2021/06/24 11:06:54;;;;;;;34.70;24.57;;;;;;;32.59;76.28;98996.06;4406025;79;28464;-82
2021/06/24 11:13:05;;;;;;;33.98;23.83;;;;;;;32.77;76.04;98990.67;4398347;79;28482;-78
2021/06/24 11:19:14;;;;;;;32.00;23.38;;;;;;;32.71;79.69;98987.44;4385656;79;28520;-77
2021/06/24 11:25:16;;;;;;;27.50;21.73;;;;;;;32.89;77.76;98985.42;4387837;79;28536;-78
2021/06/24 11:31:22;;;;;;;30.48;21.55;;;;;;;33.47;74.91;98974.17;4391668;79;28563;-76
2021/06/24 11:37:30;;;;;;;33.73;19.82;;;;;;;33.48;68.38;98967.98;4306372;81;28494;-78
2021/06/24 11:43:32;;;;;;;26.73;18.23;;;;;;;33.44;67.42;98967.96;4315508;81;28617;-79
2021/06/24 12:08:42;;;;;;;26.37;18.12;;;;;;;33.78;62.71;98932.92;4394817;79;28524;-79
2021/06/24 12:14:45;;;;;;;25.90;18.32;;;;;;;33.74;61.95;98924.34;4392263;79;28491;-78
2021/06/24 12:20:47;;;;;;;21.87;15.60;;;;;;;33.86;61.25;98921.20;4385616;79;28485;-77
2021/06/24 12:26:50;;;;;;;27.35;17.60;;;;;;;34.20;62.14;98909.77;4386745;79;28516;-76
2021/06/24 12:33:02;;;;;;;23.95;16.15;;;;;;;34.41;60.42;98900.45;4420832;78;28458;-76
2021/06/24 12:39:04;;;;;;;24.05;17.07;;;;;;;34.35;56.15;98878.50;4421852;78;28527;-76
2021/06/24 12:45:07;;;;;;;23.02;16.75;;;;;;;34.37;58.41;98873.94;4409371;79;28903;-76
2021/06/24 12:51:23;;;;;;;30.10;17.30;;;;;;;34.20;57.69;98864.36;4408376;79;28467;-77
2021/06/24 12:57:25;;;;;;;30.23;18.40;;;;;;;34.27;56.07;98857.98;4394323;79;28454;-77
2021/06/24 13:03:49;;;;;;;29.48;17.27;;;;;;;34.51;58.49;98857.80;4391599;79;28547;-76
2021/06/24 13:09:51;;;;;;;25.30;16.50;;;;;;;34.88;57.76;98851.62;4394990;79;28532;-76
2021/06/24 13:15:52;;;;;;;25.85;16.23;;;;;;;34.61;56.83;98850.64;4396195;79;28467;-76
2021/06/24 13:22:10;;;;;;;26.10;16.40;;;;;;;34.92;54.90;98830.06;4385681;79;28451;-78
2021/06/24 13:28:12;;;;;;;25.43;15.80;;;;;;;35.25;54.42;98796.48;4398798;79;28590;-78
2021/06/24 13:34:15;;;;;;;22.07;14.53;;;;;;;35.25;54.42;98796.48;4396437;79;28435;-79
2021/06/24 13:40:21;;;;;;;25.90;15.25;;;;;;;35.32;51.68;98793.67;4392719;79;28554;-78
2021/06/24 13:46:22;;;;;;;19.80;14.33;;;;;;;35.33;52.30;98799.45;4383579;79;28445;-79
2021/06/24 13:52:24;;;;;;;26.07;15.60;;;;;;;35.33;52.30;98799.45;4393056;79;28572;-78
2021/06/24 13:58:25;;;;;;;20.35;14.53;;;;;;;35.14;52.84;98790.92;4371359;79;28522;-78
2021/06/24 14:04:27;;;;;;;36.08;15.23;;;;;;;35.53;51.85;98803.93;4373296;79;28453;-84
2021/06/24 14:10:28;;;;;;;31.02;15.08;;;;;;;35.68;52.25;98801.88;4382864;79;28534;-79
2021/06/24 14:16:32;;;;;;;26.80;14.45;;;;;;;35.35;52.67;98803.22;4380583;79;28470;-81
2021/06/24 14:22:33;;;;;;;24.92;13.10;;;;;;;35.08;50.99;98791.16;4382831;79;28507;-80
2021/06/24 14:28:36;;;;;;;25.62;11.50;;;;;;;35.41;44.66;98764.69;4379209;79;28501;-79
2021/06/24 14:34:39;;;;;;;20.70;10.40;;;;;;;35.41;44.66;98764.69;4383024;79;28489;-79
2021/06/24 14:40:40;;;;;;;19.75;10.08;;;;;;;35.53;43.44;98746.63;4377198;79;28528;-82
2021/06/24 14:46:42;;;;;;;19.82;10.75;;;;;;;35.78;43.08;98731.74;4372176;79;28578;-80
2021/06/24 14:52:44;;;;;;;21.15;10.88;;;;;;;35.54;52.20;98686.73;4315395;80;28597;-78
2021/06/24 14:58:48;;;;;;;28.55;10.20;;;;;;;35.37;48.05;98638.15;4394917;79;28509;-78
2021/06/24 15:04:50;;;;;;;21.80;9.83;;;;;;;35.37;48.05;98638.15;4362137;80;28548;-78
2021/06/24 15:10:54;;;;;;;23.57;9.88;;;;;;;34.62;45.04;98653.48;4390895;79;28446;-79
2021/06/24 15:16:55;;;;;;;25.17;11.18;;;;;;;34.78;47.18;98672.37;4275047;81;28543;-80
2021/06/24 15:22:57;;;;;;;22.42;10.78;;;;;;;34.40;48.88;98659.69;4398117;79;28483;-79
2021/06/24 15:28:58;;;;;;;20.55;10.75;;;;;;;33.88;50.32;98655.35;4280849;81;28553;-78
2021/06/24 15:35:00;;;;;;;29.07;11.68;;;;;;;33.64;52.62;98664.72;4359750;79;28507;-82
2021/06/24 15:47:14;;;;;;;21.75;12.00;;;;;;;39.68;69.41;98807.77;3893080;87;28489;-82
2021/06/24 15:53:15;;;;;;;27.17;13.15;;;;;;;41.07;46.29;98881.41;3981759;88;28518;-81
2021/06/24 15:59:16;;;;;;;20.72;11.35;;;;;;;36.12;67.57;98819.22;3975791;88;28580;-82
2021/06/24 16:05:20;;;;;;;16.67;8.93;;;;;;;34.97;69.72;98753.45;3973221;88;28479;-81
2021/06/24 16:11:22;;;;;;;21.57;8.05;;;;;;;34.72;67.20;98713.25;3844049;91;28470;-81
2021/06/24 16:17:23;;;;;;;20.50;8.83;;;;;;;33.86;66.70;98669.52;3966426;88;28494;-85
